Time,TemperatureF,DewpointF,PressureIn,WindDirection,WindDirectionDegrees,WindSpeedMPH,WindSpeedGustMPH,Humidity,HourlyPrecipIn,Conditions,Clouds,dailyrainin,SoftwareType,DateUTC
2013-01-31 00:01:00,14.0,12.0,29.97,West,279,3.0,6.0,92,0.00,,,0.00,,2013-01-31 06:01:00,
2013-01-31 08:02:00,11.0,8.0,30.15,NNE,22,2.0,6.0,86,0.00,,,0.00,,2013-01-31 14:02:00,
2013-01-31 08:11:00,11.0,8.0,30.15,NNE,22,2.0,6.0,86,0.00,,,0.00,,2013-01-31 14:11:00,
2013-01-31 08:22:00,11.0,8.0,30.15,NNE,17,3.0,6.0,86,0.00,,,0.00,,2013-01-31 14:22:00,
2013-01-31 08:32:00,12.0,9.0,30.17,North,351,5.0,8.0,86,0.00,,,0.00,,2013-01-31 14:32:00,
2013-01-31 08:42:00,12.0,9.0,30.17,North,351,5.0,8.0,86,0.00,,,0.00,,2013-01-31 14:42:00,
2013-01-31 08:52:00,12.0,9.0,30.18,North,5,4.0,8.0,86,0.00,,,0.00,,2013-01-31 14:52:00,
2013-01-31 09:03:00,13.0,10.0,30.19,North,360,5.0,9.0,86,0.00,,,0.00,,2013-01-31 15:03:00,
2013-01-31 09:12:00,13.0,10.0,30.19,North,360,5.0,9.0,86,0.00,,,0.00,,2013-01-31 15:12:00,
2013-01-31 09:22:00,13.0,9.0,30.21,NNE,28,5.0,12.0,85,0.00,,,0.00,,2013-01-31 15:22:00,
2013-01-31 09:32:00,13.0,9.0,30.22,NNE,13,7.0,11.0,85,0.00,,,0.00,,2013-01-31 15:32:00,
2013-01-31 09:42:00,13.0,9.0,30.22,NNE,13,7.0,11.0,85,0.00,,,0.00,,2013-01-31 15:42:00,
2013-01-31 09:51:00,13.0,10.0,30.24,NE,38,6.0,10.0,86,0.00,,,0.00,,2013-01-31 15:51:00,
2013-01-31 10:03:00,13.0,9.0,30.24,NNW,348,9.0,17.0,84,0.00,,,0.00,,2013-01-31 16:03:00,
2013-01-31 10:12:00,13.0,9.0,30.24,NNW,348,9.0,17.0,84,0.00,,,0.00,,2013-01-31 16:12:00,
2013-01-31 10:22:00,13.0,9.0,30.26,NNE,20,8.0,14.0,83,0.00,,,0.00,,2013-01-31 16:22:00,
2013-01-31 10:33:00,12.0,7.0,30.27,NE,36,10.0,18.0,81,0.00,,,0.00,,2013-01-31 16:33:00,
2013-01-31 10:42:00,12.0,7.0,30.27,NE,36,10.0,18.0,81,0.00,,,0.00,,2013-01-31 16:42:00,
2013-01-31 10:51:00,13.0,9.0,30.29,NNE,21,7.0,14.0,83,0.00,,,0.00,,2013-01-31 16:51:00,
2013-01-31 11:02:00,11.0,7.0,30.30,North,355,11.0,19.0,83,0.00,,,0.00,,2013-01-31 17:02:00,
2013-01-31 11:12:00,11.0,7.0,30.30,North,355,11.0,19.0,83,0.00,,,0.00,,2013-01-31 17:12:00,
2013-01-31 11:23:00,11.0,7.0,30.32,North,11,9.0,15.0,84,0.00,,,0.00,,2013-01-31 17:23:00,
2013-01-31 11:32:00,11.0,7.0,30.32,NNE,19,11.0,21.0,85,0.00,,,0.00,,2013-01-31 17:32:00,
2013-01-31 11:43:00,11.0,7.0,30.32,NNE,19,11.0,21.0,85,0.00,,,0.00,,2013-01-31 17:43:00,
2013-01-31 11:53:00,10.0,6.0,30.33,NNE,30,10.0,17.0,85,0.00,,,0.00,,2013-01-31 17:53:00,
2013-01-31 12:03:00,12.0,8.0,30.34,North,11,11.0,17.0,85,0.00,,,0.00,,2013-01-31 18:03:00,
2013-01-31 12:12:00,11.0,7.0,30.34,North,11,9.0,19.0,84,0.00,,,0.00,,2013-01-31 18:12:00,
2013-01-31 12:22:00,11.0,7.0,30.34,North,11,9.0,19.0,84,0.00,,,0.00,,2013-01-31 18:22:00,
2013-01-31 12:32:00,11.0,7.0,30.35,NNE,20,9.0,14.0,84,0.00,,,0.00,,2013-01-31 18:32:00,
2013-01-31 12:43:00,11.0,7.0,30.35,NNE,20,9.0,14.0,84,0.00,,,0.00,,2013-01-31 18:43:00,
2013-01-31 12:52:00,12.0,8.0,30.35,North,10,7.0,12.0,84,0.00,,,0.00,,2013-01-31 18:52:00,
2013-01-31 13:02:00,12.0,8.0,30.36,ENE,58,9.0,17.0,83,0.00,,,0.00,,2013-01-31 19:02:00,
2013-01-31 13:12:00,12.0,8.0,30.36,ENE,58,9.0,17.0,83,0.00,,,0.00,,2013-01-31 19:12:00,
2013-01-31 13:22:00,12.0,8.0,30.36,NNE,13,8.0,16.0,83,0.00,,,0.00,,2013-01-31 19:22:00,
2013-01-31 13:32:00,13.0,9.0,30.37,North,360,7.0,14.0,83,0.00,,,0.00,,2013-01-31 19:32:00,
2013-01-31 13:42:00,13.0,9.0,30.37,North,360,7.0,14.0,83,0.00,,,0.00,,2013-01-31 19:42:00,
2013-01-31 13:51:00,13.0,9.0,30.37,NNW,346,8.0,18.0,82,0.00,,,0.00,,2013-01-31 19:51:00,
2013-01-31 14:02:00,13.0,8.0,30.37,NNW,348,8.0,14.0,81,0.00,,,0.00,,2013-01-31 20:02:00,
2013-01-31 14:11:00,13.0,8.0,30.37,NNW,348,8.0,14.0,81,0.00,,,0.00,,2013-01-31 20:11:00,
2013-01-31 14:22:00,13.0,8.0,30.37,North,5,8.0,17.0,80,0.00,,,0.00,,2013-01-31 20:22:00,
2013-01-31 14:31:00,13.0,8.0,30.37,NNE,16,8.0,13.0,79,0.00,,,0.00,,2013-01-31 20:31:00,
2013-01-31 14:42:00,13.0,8.0,30.37,NNE,16,8.0,13.0,79,0.00,,,0.00,,2013-01-31 20:42:00,
2013-01-31 14:52:00,13.0,8.0,30.37,NNE,16,8.0,13.0,79,0.00,,,0.00,,2013-01-31 20:52:00,
2013-01-31 15:02:00,14.0,8.0,30.37,NNE,19,6.0,16.0,78,0.00,,,0.00,,2013-01-31 21:02:00,
2013-01-31 15:12:00,14.0,8.0,30.37,NNE,19,6.0,16.0,78,0.00,,,0.00,,2013-01-31 21:12:00,
2013-01-31 15:22:00,14.0,8.0,30.38,North,9,5.0,12.0,78,0.00,,,0.00,,2013-01-31 21:22:00,
2013-01-31 15:32:00,15.0,9.0,30.38,ENE,73,6.0,10.0,77,0.00,,,0.00,,2013-01-31 21:32:00,
2013-01-31 15:42:00,15.0,9.0,30.38,ENE,73,6.0,10.0,77,0.00,,,0.00,,2013-01-31 21:42:00,
2013-01-31 15:52:00,14.0,8.0,30.39,NNE,18,5.0,10.0,76,0.00,,,0.00,,2013-01-31 21:52:00,
2013-01-31 16:03:00,14.0,8.0,30.40,NNE,31,5.0,9.0,76,0.00,,,0.00,,2013-01-31 22:03:00,
2013-01-31 16:11:00,14.0,8.0,30.40,NNE,31,5.0,9.0,76,0.00,,,0.00,,2013-01-31 22:11:00,
2013-01-31 16:22:00,14.0,7.0,30.40,North,11,5.0,10.0,74,0.00,,,0.00,,2013-01-31 22:22:00,
2013-01-31 16:32:00,14.0,7.0,30.40,North,5,5.0,9.0,73,0.00,,,0.00,,2013-01-31 22:32:00,
2013-01-31 16:42:00,14.0,7.0,30.40,North,5,5.0,9.0,73,0.00,,,0.00,,2013-01-31 22:42:00,
2013-01-31 16:51:00,13.0,6.0,30.41,NNE,17,5.0,9.0,74,0.00,,,0.00,,2013-01-31 22:51:00,
2013-01-31 17:02:00,13.0,6.0,30.41,NNE,24,3.0,7.0,74,0.00,,,0.00,,2013-01-31 23:02:00,
2013-01-31 17:12:00,13.0,6.0,30.41,NNE,24,3.0,7.0,74,0.00,,,0.00,,2013-01-31 23:12:00,
2013-01-31 17:22:00,12.0,5.0,30.41,NE,34,4.0,8.0,73,0.00,,,0.00,,2013-01-31 23:22:00,
2013-01-31 17:32:00,11.0,4.0,30.41,NNE,18,3.0,9.0,73,0.00,,,0.00,,2013-01-31 23:32:00,
2013-01-31 17:42:00,11.0,4.0,30.41,NNE,18,3.0,9.0,73,0.00,,,0.00,,2013-01-31 23:42:00,
2013-01-31 17:52:00,10.0,4.0,30.41,NE,38,2.0,6.0,75,0.00,,,0.00,,2013-01-31 23:52:00,
2013-01-31 18:01:00,9.0,3.0,30.42,ENE,58,1.0,5.0,76,0.00,,,0.00,,2013-02-01 00:01:00,
2013-01-31 18:11:00,9.0,3.0,30.42,ENE,58,1.0,5.0,76,0.00,,,0.00,,2013-02-01 00:11:00,
2013-01-31 18:22:00,8.0,2.0,30.42,NE,51,1.0,3.0,77,0.00,,,0.00,,2013-02-01 00:22:00,
2013-01-31 18:32:00,7.0,2.0,30.42,NE,56,1.0,3.0,78,0.00,,,0.00,,2013-02-01 00:32:00,
2013-01-31 18:42:00,7.0,2.0,30.42,NE,56,1.0,3.0,78,0.00,,,0.00,,2013-02-01 00:42:00,
2013-01-31 18:51:00,7.0,2.0,30.42,NE,55,0.0,3.0,78,0.00,,,0.00,,2013-02-01 00:51:00,
2013-01-31 19:01:00,5.0,-1.0,30.43,NE,53,0.0,2.0,77,0.00,,,0.00,,2013-02-01 01:01:00,
2013-01-31 19:11:00,5.0,-1.0,30.44,North,10,0.0,3.0,77,0.00,,,0.00,,2013-02-01 01:11:00,
2013-01-31 19:21:00,5.0,-1.0,30.44,North,10,0.0,3.0,77,0.00,,,0.00,,2013-02-01 01:21:00,
2013-01-31 19:32:00,6.0,0.0,30.45,North,9,0.0,2.0,77,0.00,,,0.00,,2013-02-01 01:32:00,
2013-01-31 19:42:00,6.0,0.0,30.45,North,9,0.0,2.0,77,0.00,,,0.00,,2013-02-01 01:42:00,
2013-01-31 19:52:00,5.0,-1.0,30.45,North,9,0.0,1.0,76,0.00,,,0.00,,2013-02-01 01:52:00,
2013-01-31 20:02:00,5.0,-1.0,30.45,NNE,14,1.0,4.0,77,0.00,,,0.00,,2013-02-01 02:02:00,
2013-01-31 20:11:00,5.0,-1.0,30.45,NNE,14,1.0,4.0,77,0.00,,,0.00,,2013-02-01 02:11:00,
2013-01-31 20:21:00,4.0,-2.0,30.46,NNE,12,0.0,3.0,77,0.00,,,0.00,,2013-02-01 02:21:00,
2013-01-31 20:32:00,4.0,-2.0,30.47,NNE,12,0.0,2.0,75,0.00,,,0.00,,2013-02-01 02:32:00,
2013-01-31 20:41:00,4.0,-2.0,30.47,NNE,12,0.0,2.0,75,0.00,,,0.00,,2013-02-01 02:41:00,
2013-01-31 20:52:00,2.0,-3.0,30.46,NNE,12,0.0,1.0,78,0.00,,,0.00,,2013-02-01 02:52:00,
2013-01-31 21:01:00,1.0,-4.0,30.47,NNE,12,0.0,1.0,80,0.00,,,0.00,,2013-02-01 03:01:00,
2013-01-31 21:12:00,1.0,-4.0,30.47,NNE,12,0.0,1.0,80,0.00,,,0.00,,2013-02-01 03:12:00,
2013-01-31 21:21:00,0.0,-5.0,30.48,NNE,12,0.0,2.0,77,0.00,,,0.00,,2013-02-01 03:21:00,
2013-01-31 21:32:00,0.0,-4.0,30.48,NNE,12,0.0,1.0,84,0.00,,,0.00,,2013-02-01 03:32:00,
2013-01-31 21:42:00,0.0,-4.0,30.48,NNE,12,0.0,1.0,84,0.00,,,0.00,,2013-02-01 03:42:00,
2013-01-31 21:52:00,0.0,-4.0,30.49,NNE,12,0.0,1.0,84,0.00,,,0.00,,2013-02-01 03:52:00,
2013-01-31 22:02:00,0.0,-4.0,30.50,NNE,12,0.0,2.0,82,0.00,,,0.00,,2013-02-01 04:02:00,
2013-01-31 22:11:00,0.0,-4.0,30.50,NNE,12,0.0,2.0,82,0.00,,,0.00,,2013-02-01 04:11:00,
2013-01-31 22:21:00,1.0,-3.0,30.51,NNE,19,0.0,2.0,82,0.00,,,0.00,,2013-02-01 04:21:00,
2013-01-31 22:32:00,1.0,-3.0,30.51,NNE,19,0.0,2.0,82,0.00,,,0.00,,2013-02-01 04:32:00,
2013-01-31 22:41:00,1.0,-3.0,30.51,NNE,19,0.0,2.0,82,0.00,,,0.00,,2013-02-01 04:41:00,
2013-01-31 22:52:00,1.0,-3.0,30.51,NNE,19,0.0,2.0,82,0.00,,,0.00,,2013-02-01 04:52:00,
2013-01-31 23:03:00,-1.0,-5.0,30.52,NNE,19,0.0,1.0,82,0.00,,,0.00,,2013-02-01 05:03:00,
2013-01-31 23:12:00,-1.0,-5.0,30.52,NNE,19,0.0,1.0,82,0.00,,,0.00,,2013-02-01 05:12:00,
2013-01-31 23:22:00,-2.0,-6.0,30.52,NNE,19,0.0,1.0,84,0.00,,,0.00,,2013-02-01 05:22:00,
2013-01-31 23:32:00,-1.0,-4.0,30.52,NNE,19,0.0,2.0,86,0.00,,,0.00,,2013-02-01 05:32:00,
2013-01-31 23:42:00,-1.0,-4.0,30.52,NNE,19,0.0,2.0,86,0.00,,,0.00,,2013-02-01 05:42:00,
2013-01-31 23:52:00,0.0,-3.0,30.51,WNW,300,0.0,3.0,86,0.00,,,0.00,,2013-02-01 05:52:00,